Date,TemperatureHighF,TemperatureAvgF,TemperatureLowF,DewpointHighF,DewpointAvgF,DewpointLowF,HumidityHigh,HumidityAvg,HumidityLow,PressureMaxIn,PressureMinIn,WindSpeedMaxMPH,WindSpeedAvgMPH,GustSpeedMaxMPH,PrecipitationSumIn
2013-3-1,0.0,0.0,0.0,67.5,67.5,67.5,0,0,100,29.69,29.59,0,0,0,0.00
2013-3-2,0.0,0.0,0.0,67.5,67.5,67.5,0,0,100,30.05,29.63,0,0,0,0.00
2013-3-3,81.7,71.0,61.0,70.8,56.3,39.1,89,61,44,30.09,29.92,6,3,8,0.34
2013-3-4,81.3,59.7,47.1,56.3,45.0,33.5,92,62,34,30.19,30.10,6,1,6,0.00
2013-3-5,71.4,67.4,65.1,55.3,53.7,52.7,67,62,54,30.13,30.09,4,2,7,0.00
2013-3-6,65.1,55.1,51.6,53.9,35.7,23.5,67,49,27,30.13,30.05,6,5,11,0.00
2013-3-7,76.1,59.5,46.0,52.8,42.7,35.5,85,57,29,30.20,30.08,5,2,8,0.00
2013-3-8,82.4,64.9,50.4,54.3,48.6,40.8,93,61,26,30.21,30.10,4,1,8,0.00
2013-3-9,84.0,66.1,51.4,59.6,52.0,47.7,88,63,39,30.29,30.11,5,1,8,0.00
2013-3-10,82.2,70.0,59.5,58.6,54.2,50.4,75,58,38,30.18,30.08,7,2,11,0.00
2013-3-11,81.7,73.0,65.3,60.0,58.1,54.8,74,60,43,30.12,29.91,6,3,11,0.00
2013-3-12,86.0,73.7,63.9,66.5,62.4,58.1,84,69,49,29.94,29.85,6,2,10,0.00
2013-3-13,80.6,68.4,55.9,63.6,53.1,41.0,90,61,30,30.06,29.92,5,3,8,0.02
2013-3-14,77.7,65.6,53.4,49.4,42.0,31.4,83,46,22,30.14,30.03,6,2,9,0.00
2013-3-15,81.3,64.2,51.4,52.2,47.7,43.4,78,58,32,30.19,30.08,4,2,7,0.00
2013-3-16,83.7,66.8,50.9,59.1,52.0,49.0,94,63,34,30.13,30.02,5,2,8,0.00
2013-3-17,81.3,68.3,55.0,59.6,55.6,51.3,91,66,44,30.09,29.96,6,2,10,0.00
2013-3-18,84.2,71.1,61.5,67.0,62.4,56.8,90,75,50,30.01,29.90,0,0,0,0.00
2013-3-19,81.3,73.8,67.6,69.3,65.4,62.6,93,77,54,29.95,29.76,5,1,5,0.00
2013-3-20,89.4,71.2,63.0,72.8,60.4,56.0,96,70,42,29.91,29.74,8,3,10,0.01
2013-3-21,80.6,69.0,60.8,60.2,51.6,37.3,89,59,27,29.88,29.77,5,3,8,0.00
2013-3-22,80.2,71.7,55.0,66.7,63.4,49.3,87,76,49,29.93,29.83,8,2,8,0.00
2013-3-23,91.9,79.9,70.5,73.2,68.2,65.2,93,70,44,29.92,29.74,4,0,6,0.00
2013-3-24,82.0,75.5,74.1,72.4,70.8,69.0,92,85,68,29.83,29.70,0,0,0,0.00
2013-3-25,87.6,79.5,73.8,71.4,67.7,65.1,83,68,54,29.79,29.68,4,3,6,0.00
2013-3-30,86.4,77.6,75.4,54.7,52.0,50.4,44,41,33,29.91,29.87,0,0,0,0.00
2013-3-31,82.4,78.4,57.2,63.3,61.8,53.0,87,57,48,29.87,29.75,0,0,0,0.00